AirNav   Air Wisconsin pilot careers
 
 1165 users online  

NJ89 Southern Ocean Medical Center Heliport
Manahawkin, New Jersey, USA

GOING TO MANAHAWKIN?


FAA INFORMATION EFFECTIVE 01 FEBRUARY 2018

Location

FAA Identifier: NJ89
Lat/Long: 39-43-15.2000N / 074-16-59.1500W
39-43.253333N / 074-16.985833W
39.7208889 / -74.2830972
(estimated)
Elevation: 55 ft. / 17 m (estimated)
Variation: 12W (1985)
From city: 1 mile W of MANAHAWKIN, NJ
Time zone: UTC -5 (UTC -4 during Daylight Saving Time)
Zip code: 08050

Heliport Operations

Heliport use: Private use, MEDICAL USE.
Activation date: 03/1974
Control tower: no
ARTCC: WASHINGTON CENTER
FSS: MILLVILLE FLIGHT SERVICE STATION
Attendance: UNATNDD
Wind indicator: lighted
Segmented circle: no
Lights: FOR PERIMETER LGTS CALL 609-597-6011.

Heliport Communications

WX AWOS-3PT at MJX (12 nm N): 119.875 (732-797-2542)

Nearby radio navigation aids

VOR radial/distance  VOR name  Freq  Var
CYNr140/9.0COYLE VORTAC113.4010W
ACYr050/20.9ATLANTIC CITY VORTAC108.6010W
GXUr152/22.5MC GUIRE VORTAC110.6012W
RBVr171/30.5ROBBINSVILLE VORTAC113.8010W
VCNr081/33.5CEDAR LAKE VOR/DME115.2010W
COLr200/35.9COLTS NECK VOR/DME115.4011W
PNEr133/(39.8)NORTH PHILADELPHIA VOR112.0010W

 
NDB name  Hdg/Dist  Freq  Var  ID
LAKEHURST184/19.639611WNEL -. . .-..

Heliport Services

Airframe service: NONE
Powerplant service: NONE

Runway Information

Helipad H1

Dimensions: 75 x 75 ft. / 23 x 23 m
Surface: asphalt
Runway edge lights: PERIMETER LGTS.
Latitude: 39-43.253333N
Longitude: 074-16.985833W
Elevation: 55.0 ft.
Traffic pattern: leftleft
Obstructions: bldg
60' TOWER - LGTD, 150' EAST; PLINE - MRKD, NORTH AS WELL AS TREELINE.

Heliport Ownership and Management from official FAA records

Ownership: Privately-owned
Owner: SOUTHERN OCEAN MEDICAL CENTER
1140 W. BAY AVENUE
MANAHAWKIN, NJ 08050
Phone 609-597-6011
Manager: STEVE LITTLESON
1140 WEST BAY AVE
MANAHAWKIN, NJ 08050
Phone 609-597-6011
PATRICK GILDNER 609-978-8915

Instrument Procedures

There are no published instrument procedures at NJ89.

Some nearby airports with instrument procedures:

31E - Eagles Nest Airport (4 nm S)
KMJX - Ocean County Airport (12 nm N)
KNEL - Lakehurst Maxfield Field Airport (19 nm N)
KACY - Atlantic City International Airport (21 nm SW)
N12 - Lakewood Airport (21 nm N)
 
Loc | Ops | Rwys | IFR | FBO | Links
Com | Nav | Svcs | Stats | Notes

AirNav Hotels Sweepstakes
 
Area around NJ89 (Southern Ocean Medical Center Heliport)
 
Road maps at: MapQuest Bing Google
 
Aerial photo
No photo
 
Sectional chart

 
Airport distance calculator
Flying to Southern Ocean Medical Center Heliport? Find the distance to fly.

From to NJ89

Sunrise and sunset
Times for 25-Feb-2018
 Local
(UTC-5)
 Zulu
(UTC)
Morning civil twilight06:1011:10
Sunrise06:3711:37
Sunset17:4322:43
Evening civil twilight18:1123:11

Current date and time
Zulu (UTC)  25-Feb-2018 22:19:24
Local (UTC-5)  25-Feb-2018 17:19:24
 
METAR
KMJX 
12nm N 
AWOS-3 119.875 732-244-4450
252056Z AUTO 31006KT 10SM OVC004 08/07 A2999 RMK AO2 SLP160 6//// T00780072 53028 PNO $
KNEL 
18nm N 
252200Z AUTO VRB03KT 3/4SM OVC004 08/08 A2998 RMK AO2 SFC VIS 7 SLP150 T00780078 PNO $
KACY 
21nm SW 
252154Z 35004KT 10SM OVC005 11/11 A2996 RMK AO2 SLP146 T01060106 $
KWRI 
22nm NW 
252156Z AUTO 36005KT 10SM OVC004 08/07 A2996 RMK AO2 CIG 003 RWY18 SLP146 T00750069
TAF
KACY 
21nm SW 
251742Z 2518/2618 24003KT P6SM OVC003 TEMPO 2518/2520 5SM -RA FM252000 26006KT P6SM VCSH BKN010 FM252200 27005KT P6SM BKN024 FM260000 VRB02KT P6SM BKN018 FM260500 VRB02KT 2SM BR BKN015 FM261500 33007KT P6SM BKN090
KWRI 
22nm NW 
252017Z 2520/2624 03006KT 9999 OVC004 510202 QNH2991INS BECMG 2523/2601 VRB06KT 9999 BKN010 OVC100 QNH2993INS BECMG 2601/2603 31006KT 9999 FEW012 BKN150 QNH2995INS BECMG 2617/2618 33006KT 9999 SCT150 QNH3009INS TX11/2521Z TN05/2610Z
NOTAMs
Click for the latest NOTAMs
NOTAMs are issued by the DoD/FAA and will open in a separate window not controlled by AirNav.

 

 
 

Would you like to see your business listed on this page?

 If your business provides an interesting product or service to pilots, flight crews, aircraft, or users of the Southern Ocean Medical Center Heliport, you should consider listing it here.  To start the listing process, click on the button below
 
Add a business
 

Other Pages about Southern Ocean Medical Center Heliport

Update a link
 
Copyright © AirNav, LLC. All rights reserved. Privacy Policy  Contact